Cincinnati, Ohio
Traffic Map
Current Weather Conditions
Cincinnati, Ohio
Clear
Clear
54°
Feels Like: 54°
Wind Chill: 54° Ceiling: Unl
Heat Index: 54° Visibility: 10mi
Dew Point: 52° Wind: 0mph
Humidity: 93% Direction: ° ()
Pressure: 30.12in Gusts: 0mph
Raw Report DataKLUK 190153Z 00000KT 10SM CLR 12/11 A3012 RMK AO2 SLP198 T01220111
Traffic Incident Summary
Active as of:
Severity:
Category:
InformationThere was an issue retrieving the traffic information for this location. Please try a different location or try again shortly.
Advertisements
Track Severe Weather on mobile